sensor_id;sensor_type;location;lat;lon;timestamp;pressure;altitude;pressure_sealevel;temperature;humidity
51715;BME280;39115;59.332;18.034;2023-09-07T00:01:44;102648.56;;;17.84;59.01
51715;BME280;39115;59.332;18.034;2023-09-07T00:04:05;102650.38;;;17.83;59.05
51715;BME280;39115;59.332;18.034;2023-09-07T00:06:26;102645.97;;;17.82;59.05
51715;BME280;39115;59.332;18.034;2023-09-07T00:08:47;102641.72;;;17.80;59.06
51715;BME280;39115;59.332;18.034;2023-09-07T00:11:08;102650.78;;;17.79;58.98
51715;BME280;39115;59.332;18.034;2023-09-07T00:13:29;102642.84;;;17.77;58.94
51715;BME280;39115;59.332;18.034;2023-09-07T00:15:50;102647.38;;;17.77;58.94
51715;BME280;39115;59.332;18.034;2023-09-07T00:18:10;102636.88;;;17.74;59.05
51715;BME280;39115;59.332;18.034;2023-09-07T00:20:31;102644.09;;;17.73;59.00
51715;BME280;39115;59.332;18.034;2023-09-07T00:22:53;102636.31;;;17.70;58.95
51715;BME280;39115;59.332;18.034;2023-09-07T00:25:13;102639.00;;;17.70;58.96
51715;BME280;39115;59.332;18.034;2023-09-07T00:27:34;102641.84;;;17.68;58.87
51715;BME280;39115;59.332;18.034;2023-09-07T00:29:54;102642.94;;;17.66;59.02
51715;BME280;39115;59.332;18.034;2023-09-07T00:32:15;102640.38;;;17.64;59.07
51715;BME280;39115;59.332;18.034;2023-09-07T00:34:38;102639.53;;;17.64;59.00
51715;BME280;39115;59.332;18.034;2023-09-07T00:37:00;102641.50;;;17.62;59.00
51715;BME280;39115;59.332;18.034;2023-09-07T00:39:21;102643.47;;;17.60;58.97
51715;BME280;39115;59.332;18.034;2023-09-07T00:41:41;102654.25;;;17.60;59.01
51715;BME280;39115;59.332;18.034;2023-09-07T00:44:02;102651.69;;;17.58;59.04
51715;BME280;39115;59.332;18.034;2023-09-07T00:46:22;102641.06;;;17.57;59.07
51715;BME280;39115;59.332;18.034;2023-09-07T00:48:43;102649.25;;;17.55;58.97
51715;BME280;39115;59.332;18.034;2023-09-07T00:51:06;102650.25;;;17.54;58.88
51715;BME280;39115;59.332;18.034;2023-09-07T00:53:27;102648.56;;;17.53;59.02
51715;BME280;39115;59.332;18.034;2023-09-07T00:55:48;102654.06;;;17.51;58.91
51715;BME280;39115;59.332;18.034;2023-09-07T00:58:08;102657.88;;;17.49;58.92
51715;BME280;39115;59.332;18.034;2023-09-07T01:00:32;102646.38;;;17.47;58.92
51715;BME280;39115;59.332;18.034;2023-09-07T01:02:54;102650.06;;;17.46;58.83
51715;BME280;39115;59.332;18.034;2023-09-07T01:05:16;102652.91;;;17.44;58.97
51715;BME280;39115;59.332;18.034;2023-09-07T01:07:48;102646.69;;;17.44;58.81
51715;BME280;39115;59.332;18.034;2023-09-07T01:10:13;102648.63;;;17.42;58.86
51715;BME280;39115;59.332;18.034;2023-09-07T01:12:34;102639.84;;;17.39;58.86
51715;BME280;39115;59.332;18.034;2023-09-07T01:14:55;102656.13;;;17.38;58.97
51715;BME280;39115;59.332;18.034;2023-09-07T01:17:16;102657.13;;;17.37;59.00
51715;BME280;39115;59.332;18.034;2023-09-07T01:19:37;102656.38;;;17.35;59.12
51715;BME280;39115;59.332;18.034;2023-09-07T01:21:57;102647.47;;;17.34;58.99
51715;BME280;39115;59.332;18.034;2023-09-07T01:24:20;102646.75;;;17.32;58.97
51715;BME280;39115;59.332;18.034;2023-09-07T01:26:41;102648.72;;;17.30;58.88
51715;BME280;39115;59.332;18.034;2023-09-07T01:29:03;102647.03;;;17.29;58.94
51715;BME280;39115;59.332;18.034;2023-09-07T01:31:23;102646.16;;;17.29;58.96
51715;BME280;39115;59.332;18.034;2023-09-07T01:33:44;102647.28;;;17.26;58.95
51715;BME280;39115;59.332;18.034;2023-09-07T01:36:05;102641.06;;;17.26;59.04
51715;BME280;39115;59.332;18.034;2023-09-07T01:38:25;102641.19;;;17.24;58.87
51715;BME280;39115;59.332;18.034;2023-09-07T01:40:46;102635.78;;;17.24;58.79
51715;BME280;39115;59.332;18.034;2023-09-07T01:43:06;102638.63;;;17.22;58.78
51715;BME280;39115;59.332;18.034;2023-09-07T01:45:27;102637.06;;;17.20;58.94
51715;BME280;39115;59.332;18.034;2023-09-07T01:47:47;102646.09;;;17.19;58.87
51715;BME280;39115;59.332;18.034;2023-09-07T01:50:08;102647.97;;;17.18;58.83
51715;BME280;39115;59.332;18.034;2023-09-07T01:52:28;102635.59;;;17.16;58.80
51715;BME280;39115;59.332;18.034;2023-09-07T01:54:49;102629.38;;;17.15;58.87
51715;BME280;39115;59.332;18.034;2023-09-07T01:57:09;102635.88;;;17.13;58.85
51715;BME280;39115;59.332;18.034;2023-09-07T01:59:30;102637.69;;;17.12;58.82
51715;BME280;39115;59.332;18.034;2023-09-07T02:01:50;102636.88;;;17.12;58.83
51715;BME280;39115;59.332;18.034;2023-09-07T02:04:11;102631.75;;;17.09;58.86
51715;BME280;39115;59.332;18.034;2023-09-07T02:06:31;102638.09;;;17.07;59.00
51715;BME280;39115;59.332;18.034;2023-09-07T02:08:52;102632.84;;;17.06;58.94
51715;BME280;39115;59.332;18.034;2023-09-07T02:11:12;102633.84;;;17.05;58.88
51715;BME280;39115;59.332;18.034;2023-09-07T02:13:33;102633.97;;;17.03;59.00
51715;BME280;39115;59.332;18.034;2023-09-07T02:15:53;102628.75;;;17.02;58.88
51715;BME280;39115;59.332;18.034;2023-09-07T02:18:14;102624.34;;;17.01;58.84
51715;BME280;39115;59.332;18.034;2023-09-07T02:20:35;102619.94;;;17.00;58.90
51715;BME280;39115;59.332;18.034;2023-09-07T02:22:55;102617.41;;;16.98;58.84
51715;BME280;39115;59.332;18.034;2023-09-07T02:25:16;102616.53;;;16.98;58.73
51715;BME280;39115;59.332;18.034;2023-09-07T02:27:37;102622.03;;;16.96;58.82
51715;BME280;39115;59.332;18.034;2023-09-07T02:29:58;102619.50;;;16.95;58.86
51715;BME280;39115;59.332;18.034;2023-09-07T02:32:18;102614.22;;;16.93;58.76
51715;BME280;39115;59.332;18.034;2023-09-07T02:34:39;102616.06;;;16.93;58.77
51715;BME280;39115;59.332;18.034;2023-09-07T02:36:59;102618.88;;;16.91;58.79
51715;BME280;39115;59.332;18.034;2023-09-07T02:39:20;102617.16;;;16.90;58.77
51715;BME280;39115;59.332;18.034;2023-09-07T02:41:41;102609.19;;;16.88;58.73
51715;BME280;39115;59.332;18.034;2023-09-07T02:44:01;102613.88;;;16.86;58.79
51715;BME280;39115;59.332;18.034;2023-09-07T02:46:23;102621.09;;;16.86;58.84
51715;BME280;39115;59.332;18.034;2023-09-07T02:48:43;102622.94;;;16.85;58.97
51715;BME280;39115;59.332;18.034;2023-09-07T02:51:04;102630.13;;;16.85;58.69
51715;BME280;39115;59.332;18.034;2023-09-07T02:53:24;102621.34;;;16.83;58.82
51715;BME280;39115;59.332;18.034;2023-09-07T02:55:45;102620.50;;;16.82;58.91
51715;BME280;39115;59.332;18.034;2023-09-07T02:58:05;102618.91;;;16.80;58.84
51715;BME280;39115;59.332;18.034;2023-09-07T03:00:26;102627.00;;;16.80;58.81
51715;BME280;39115;59.332;18.034;2023-09-07T03:02:47;102628.94;;;16.78;58.78
51715;BME280;39115;59.332;18.034;2023-09-07T03:05:09;102627.22;;;16.76;58.82
51715;BME280;39115;59.332;18.034;2023-09-07T03:07:33;102623.72;;;16.76;58.91
51715;BME280;39115;59.332;18.034;2023-09-07T03:09:54;102631.91;;;16.74;58.74
51715;BME280;39115;59.332;18.034;2023-09-07T03:12:14;102636.56;;;16.72;58.65
51715;BME280;39115;59.332;18.034;2023-09-07T03:14:35;102627.63;;;16.72;58.71
51715;BME280;39115;59.332;18.034;2023-09-07T03:16:55;102632.16;;;16.71;58.72
51715;BME280;39115;59.332;18.034;2023-09-07T03:19:16;102625.22;;;16.69;58.78
51715;BME280;39115;59.332;18.034;2023-09-07T03:21:36;102627.03;;;16.68;58.72
51715;BME280;39115;59.332;18.034;2023-09-07T03:23:57;102621.78;;;16.67;58.76
51715;BME280;39115;59.332;18.034;2023-09-07T03:26:18;102622.78;;;16.66;58.76
51715;BME280;39115;59.332;18.034;2023-09-07T03:28:38;102624.63;;;16.65;58.69
51715;BME280;39115;59.332;18.034;2023-09-07T03:30:59;102626.44;;;16.65;58.74
51715;BME280;39115;59.332;18.034;2023-09-07T03:33:19;102628.41;;;16.63;58.64
51715;BME280;39115;59.332;18.034;2023-09-07T03:35:40;102627.56;;;16.62;58.64
51715;BME280;39115;59.332;18.034;2023-09-07T03:38:01;102625.00;;;16.60;58.76
51715;BME280;39115;59.332;18.034;2023-09-07T03:40:22;102618.91;;;16.58;58.69
51715;BME280;39115;59.332;18.034;2023-09-07T03:42:42;102626.13;;;16.58;58.65
51715;BME280;39115;59.332;18.034;2023-09-07T03:45:04;102627.09;;;16.57;58.62
51715;BME280;39115;59.332;18.034;2023-09-07T03:47:24;102619.16;;;16.55;58.83
51715;BME280;39115;59.332;18.034;2023-09-07T03:49:49;102620.97;;;16.55;58.70
51715;BME280;39115;59.332;18.034;2023-09-07T03:52:10;102618.44;;;16.53;58.80
51715;BME280;39115;59.332;18.034;2023-09-07T03:54:31;102621.25;;;16.52;58.79
51715;BME280;39115;59.332;18.034;2023-09-07T03:56:52;102619.56;;;16.51;58.79
51715;BME280;39115;59.332;18.034;2023-09-07T03:59:13;102623.22;;;16.50;58.81
51715;BME280;39115;59.332;18.034;2023-09-07T04:01:34;102624.19;;;16.49;58.73
51715;BME280;39115;59.332;18.034;2023-09-07T04:03:54;102625.16;;;16.48;58.61
51715;BME280;39115;59.332;18.034;2023-09-07T04:06:15;102630.69;;;16.46;58.77
51715;BME280;39115;59.332;18.034;2023-09-07T04:08:35;102625.31;;;16.46;58.75
51715;BME280;39115;59.332;18.034;2023-09-07T04:10:56;102635.19;;;16.46;58.76
51715;BME280;39115;59.332;18.034;2023-09-07T04:13:16;102625.56;;;16.43;58.85
51715;BME280;39115;59.332;18.034;2023-09-07T04:15:46;102624.72;;;16.42;58.66
51715;BME280;39115;59.332;18.034;2023-09-07T04:18:06;102621.28;;;16.40;58.82
51715;BME280;39115;59.332;18.034;2023-09-07T04:20:27;102620.56;;;16.38;58.62
51715;BME280;39115;59.332;18.034;2023-09-07T04:22:49;102625.09;;;16.38;58.83
51715;BME280;39115;59.332;18.034;2023-09-07T04:25:10;102631.44;;;16.37;58.72
51715;BME280;39115;59.332;18.034;2023-09-07T04:27:30;102624.34;;;16.36;58.87
51715;BME280;39115;59.332;18.034;2023-09-07T04:29:51;102623.50;;;16.35;58.74
51715;BME280;39115;59.332;18.034;2023-09-07T04:32:11;102629.00;;;16.34;58.69
51715;BME280;39115;59.332;18.034;2023-09-07T04:34:32;102628.16;;;16.33;58.58
51715;BME280;39115;59.332;18.034;2023-09-07T04:36:53;102624.63;;;16.33;58.71
51715;BME280;39115;59.332;18.034;2023-09-07T04:39:13;102629.28;;;16.31;58.55
51715;BME280;39115;59.332;18.034;2023-09-07T04:41:34;102627.56;;;16.30;58.64
51715;BME280;39115;59.332;18.034;2023-09-07T04:43:55;102620.47;;;16.28;58.54
51715;BME280;39115;59.332;18.034;2023-09-07T04:46:15;102624.13;;;16.27;58.73
51715;BME280;39115;59.332;18.034;2023-09-07T04:48:37;102618.91;;;16.26;58.85
51715;BME280;39115;59.332;18.034;2023-09-07T04:51:08;102616.22;;;16.26;58.85
51715;BME280;39115;59.332;18.034;2023-09-07T04:53:31;102618.16;;;16.24;58.82
51715;BME280;39115;59.332;18.034;2023-09-07T04:55:51;102620.00;;;16.23;58.54
51715;BME280;39115;59.332;18.034;2023-09-07T04:58:12;102614.75;;;16.22;58.73
51715;BME280;39115;59.332;18.034;2023-09-07T05:00:32;102613.91;;;16.21;58.60
51715;BME280;39115;59.332;18.034;2023-09-07T05:02:53;102617.56;;;16.20;58.83
51715;BME280;39115;59.332;18.034;2023-09-07T05:05:13;102617.56;;;16.20;58.54
51715;BME280;39115;59.332;18.034;2023-09-07T05:07:34;102623.06;;;16.19;58.73
51715;BME280;39115;59.332;18.034;2023-09-07T05:09:54;102623.06;;;16.19;58.70
51715;BME280;39115;59.332;18.034;2023-09-07T05:12:15;102620.63;;;16.16;58.59
51715;BME280;39115;59.332;18.034;2023-09-07T05:14:38;102622.47;;;16.15;58.60
51715;BME280;39115;59.332;18.034;2023-09-07T05:16:59;102618.91;;;16.15;58.69
51715;BME280;39115;59.332;18.034;2023-09-07T05:19:21;102618.06;;;16.14;58.66
51715;BME280;39115;59.332;18.034;2023-09-07T05:21:42;102619.88;;;16.13;58.51
51715;BME280;39115;59.332;18.034;2023-09-07T05:24:02;102611.97;;;16.12;58.74
51715;BME280;39115;59.332;18.034;2023-09-07T05:26:24;102615.63;;;16.11;58.88
51715;BME280;39115;59.332;18.034;2023-09-07T05:28:44;102623.69;;;16.11;58.84
51715;BME280;39115;59.332;18.034;2023-09-07T05:31:08;102630.91;;;16.10;58.49
51715;BME280;39115;59.332;18.034;2023-09-07T05:33:28;102633.72;;;16.09;58.72
51715;BME280;39115;59.332;18.034;2023-09-07T05:35:48;102627.47;;;16.08;58.55
51715;BME280;39115;59.332;18.034;2023-09-07T05:38:09;102632.00;;;16.08;58.66
51715;BME280;39115;59.332;18.034;2023-09-07T05:40:34;102622.09;;;16.08;58.80
51715;BME280;39115;59.332;18.034;2023-09-07T05:42:55;102621.38;;;16.06;58.76
51715;BME280;39115;59.332;18.034;2023-09-07T05:45:15;102619.69;;;16.05;58.74
51715;BME280;39115;59.332;18.034;2023-09-07T05:47:36;102628.59;;;16.06;58.69
51715;BME280;39115;59.332;18.034;2023-09-07T05:49:56;102616.13;;;16.05;58.63
51715;BME280;39115;59.332;18.034;2023-09-07T05:52:17;102619.69;;;16.05;58.62
51715;BME280;39115;59.332;18.034;2023-09-07T05:54:38;102619.69;;;16.05;58.80
51715;BME280;39115;59.332;18.034;2023-09-07T05:56:58;102617.13;;;16.04;58.64
51715;BME280;39115;59.332;18.034;2023-09-07T05:59:19;102613.59;;;16.03;58.55
51715;BME280;39115;59.332;18.034;2023-09-07T06:01:40;102621.66;;;16.03;58.48
51715;BME280;39115;59.332;18.034;2023-09-07T06:04:00;102618.97;;;16.03;58.69
51715;BME280;39115;59.332;18.034;2023-09-07T06:06:21;102623.34;;;16.04;58.56
51715;BME280;39115;59.332;18.034;2023-09-07T06:08:41;102625.16;;;16.04;58.49
51715;BME280;39115;59.332;18.034;2023-09-07T06:11:02;102627.84;;;16.04;58.49
51715;BME280;39115;59.332;18.034;2023-09-07T06:13:23;102627.84;;;16.04;58.45
51715;BME280;39115;59.332;18.034;2023-09-07T06:15:43;102630.53;;;16.04;58.42
51715;BME280;39115;59.332;18.034;2023-09-07T06:18:03;102626.03;;;16.04;58.63
51715;BME280;39115;59.332;18.034;2023-09-07T06:20:24;102623.34;;;16.04;58.64
51715;BME280;39115;59.332;18.034;2023-09-07T06:22:45;102625.16;;;16.04;58.34
51715;BME280;39115;59.332;18.034;2023-09-07T06:25:06;102620.66;;;16.04;58.44
51715;BME280;39115;59.332;18.034;2023-09-07T06:27:26;102622.38;;;16.05;58.41
51715;BME280;39115;59.332;18.034;2023-09-07T06:29:47;102625.06;;;16.05;58.55
51715;BME280;39115;59.332;18.034;2023-09-07T06:32:07;102630.44;;;16.05;58.53
51715;BME280;39115;59.332;18.034;2023-09-07T06:34:28;102634.81;;;16.06;58.36
51715;BME280;39115;59.332;18.034;2023-09-07T06:36:48;102624.94;;;16.07;58.68
51715;BME280;39115;59.332;18.034;2023-09-07T06:39:09;102630.31;;;16.07;58.57
51715;BME280;39115;59.332;18.034;2023-09-07T06:41:30;102629.19;;;16.09;58.47
51715;BME280;39115;59.332;18.034;2023-09-07T06:43:51;102631.88;;;16.09;58.65
51715;BME280;39115;59.332;18.034;2023-09-07T06:46:11;102631.88;;;16.09;58.60
51715;BME280;39115;59.332;18.034;2023-09-07T06:48:32;102621.88;;;16.11;58.37
51715;BME280;39115;59.332;18.034;2023-09-07T06:50:52;102621.88;;;16.11;58.33
51715;BME280;39115;59.332;18.034;2023-09-07T06:53:13;102619.19;;;16.11;58.46
51715;BME280;39115;59.332;18.034;2023-09-07T06:55:33;102619.06;;;16.13;58.31
51715;BME280;39115;59.332;18.034;2023-09-07T06:57:54;102620.75;;;16.14;58.51
51715;BME280;39115;59.332;18.034;2023-09-07T07:00:14;102628.69;;;16.16;58.45
51715;BME280;39115;59.332;18.034;2023-09-07T07:02:35;102626.00;;;16.16;58.27
51715;BME280;39115;59.332;18.034;2023-09-07T07:04:55;102628.59;;;16.17;58.25
51715;BME280;39115;59.332;18.034;2023-09-07T07:07:17;102624.88;;;16.18;58.43
51715;BME280;39115;59.332;18.034;2023-09-07T07:09:37;102627.47;;;16.20;58.36
51715;BME280;39115;59.332;18.034;2023-09-07T07:11:59;102620.25;;;16.20;58.20
51715;BME280;39115;59.332;18.034;2023-09-07T07:14:22;102616.59;;;16.21;58.39
51715;BME280;39115;59.332;18.034;2023-09-07T07:16:43;102621.00;;;16.22;58.34
51715;BME280;39115;59.332;18.034;2023-09-07T07:19:03;102621.81;;;16.23;58.28
51715;BME280;39115;59.332;18.034;2023-09-07T07:21:24;102610.97;;;16.24;58.24
51715;BME280;39115;59.332;18.034;2023-09-07T07:23:47;102618.03;;;16.25;58.16
51715;BME280;39115;59.332;18.034;2023-09-07T07:26:08;102619.75;;;16.26;58.28
51715;BME280;39115;59.332;18.034;2023-09-07T07:28:29;102617.94;;;16.27;58.20
51715;BME280;39115;59.332;18.034;2023-09-07T07:30:49;102618.63;;;16.29;58.32
51715;BME280;39115;59.332;18.034;2023-09-07T07:33:12;102612.28;;;16.30;58.29
51715;BME280;39115;59.332;18.034;2023-09-07T07:35:34;102611.31;;;16.31;58.46
51715;BME280;39115;59.332;18.034;2023-09-07T07:37:57;102624.63;;;16.33;58.25
51715;BME280;39115;59.332;18.034;2023-09-07T07:40:18;102618.25;;;16.34;58.13
51715;BME280;39115;59.332;18.034;2023-09-07T07:42:38;102623.50;;;16.35;58.21
51715;BME280;39115;59.332;18.034;2023-09-07T07:44:59;102616.16;;;16.37;58.21
51715;BME280;39115;59.332;18.034;2023-09-07T07:47:20;102615.19;;;16.38;58.00
51715;BME280;39115;59.332;18.034;2023-09-07T07:49:40;102618.59;;;16.40;58.13
51715;BME280;39115;59.332;18.034;2023-09-07T07:52:00;102623.00;;;16.41;58.15
51715;BME280;39115;59.332;18.034;2023-09-07T07:54:21;102613.97;;;16.42;58.30
51715;BME280;39115;59.332;18.034;2023-09-07T07:56:43;102615.53;;;16.45;58.84
51715;BME280;39115;59.332;18.034;2023-09-07T07:59:03;102614.28;;;16.49;59.57
51715;BME280;39115;59.332;18.034;2023-09-07T08:01:24;102611.09;;;16.55;60.42
51715;BME280;39115;59.332;18.034;2023-09-07T08:03:46;102614.84;;;16.64;61.01
51715;BME280;39115;59.332;18.034;2023-09-07T08:06:07;102606.09;;;16.72;61.76
51715;BME280;39115;59.332;18.034;2023-09-07T08:08:27;102607.31;;;16.79;62.43
51715;BME280;39115;59.332;18.034;2023-09-07T08:10:48;102612.03;;;16.87;63.06
51715;BME280;39115;59.332;18.034;2023-09-07T08:13:08;102603.34;;;16.95;63.60
51715;BME280;39115;59.332;18.034;2023-09-07T08:15:29;102611.59;;;17.03;64.05
51715;BME280;39115;59.332;18.034;2023-09-07T08:17:52;102613.63;;;17.11;64.63
51715;BME280;39115;59.332;18.034;2023-09-07T08:20:12;102615.53;;;17.20;64.68
51715;BME280;39115;59.332;18.034;2023-09-07T08:22:33;102615.81;;;17.27;64.92
51715;BME280;39115;59.332;18.034;2023-09-07T08:24:56;102616.16;;;17.33;64.94
51715;BME280;39115;59.332;18.034;2023-09-07T08:27:18;102617.47;;;17.39;64.94
51715;BME280;39115;59.332;18.034;2023-09-07T08:29:39;102615.22;;;17.44;64.64
51715;BME280;39115;59.332;18.034;2023-09-07T08:31:59;102615.69;;;17.49;64.63
51715;BME280;39115;59.332;18.034;2023-09-07T08:34:24;102606.34;;;17.53;64.44
51715;BME280;39115;59.332;18.034;2023-09-07T08:36:44;102610.44;;;17.58;64.28
51715;BME280;39115;59.332;18.034;2023-09-07T08:39:07;102611.03;;;17.61;63.97
51715;BME280;39115;59.332;18.034;2023-09-07T08:41:30;102610.63;;;17.66;63.78
51715;BME280;39115;59.332;18.034;2023-09-07T08:43:53;102603.25;;;17.68;63.58
51715;BME280;39115;59.332;18.034;2023-09-07T08:46:18;102606.53;;;17.72;63.26
51715;BME280;39115;59.332;18.034;2023-09-07T08:48:42;102607.97;;;17.76;63.19
51715;BME280;39115;59.332;18.034;2023-09-07T08:51:05;102603.16;;;17.79;63.00
51715;BME280;39115;59.332;18.034;2023-09-07T08:53:27;102610.13;;;17.82;62.83
51715;BME280;39115;59.332;18.034;2023-09-07T08:55:50;102604.44;;;17.85;62.65
51715;BME280;39115;59.332;18.034;2023-09-07T08:58:10;102594.38;;;17.87;62.63
51715;BME280;39115;59.332;18.034;2023-09-07T09:00:31;102594.84;;;17.92;62.44
51715;BME280;39115;59.332;18.034;2023-09-07T09:02:52;102595.44;;;17.96;62.33
51715;BME280;39115;59.332;18.034;2023-09-07T09:05:15;102594.31;;;17.98;62.33
51715;BME280;39115;59.332;18.034;2023-09-07T09:07:37;102592.19;;;18.02;62.17
51715;BME280;39115;59.332;18.034;2023-09-07T09:10:07;102590.06;;;18.06;62.22
51715;BME280;39115;59.332;18.034;2023-09-07T09:12:28;102584.38;;;18.09;62.17
51715;BME280;39115;59.332;18.034;2023-09-07T09:14:49;102580.59;;;18.11;61.99
51715;BME280;39115;59.332;18.034;2023-09-07T09:17:13;102576.59;;;18.15;61.91
51715;BME280;39115;59.332;18.034;2023-09-07T09:19:34;102583.56;;;18.18;61.74
51715;BME280;39115;59.332;18.034;2023-09-07T09:21:55;102585.97;;;18.21;61.69
51715;BME280;39115;59.332;18.034;2023-09-07T09:24:16;102586.53;;;18.25;61.83
51715;BME280;39115;59.332;18.034;2023-09-07T09:26:38;102586.25;;;18.28;61.66
51715;BME280;39115;59.332;18.034;2023-09-07T09:29:00;102576.03;;;18.31;61.66
51715;BME280;39115;59.332;18.034;2023-09-07T09:31:20;102583.84;;;18.35;61.71
51715;BME280;39115;59.332;18.034;2023-09-07T09:33:42;102580.88;;;18.38;61.65
51715;BME280;39115;59.332;18.034;2023-09-07T09:36:03;102576.06;;;18.41;61.54
51715;BME280;39115;59.332;18.034;2023-09-07T09:38:24;102577.47;;;18.45;61.53
51715;BME280;39115;59.332;18.034;2023-09-07T09:40:45;102569.09;;;18.48;61.51
51715;BME280;39115;59.332;18.034;2023-09-07T09:43:06;102570.66;;;18.51;61.50
51715;BME280;39115;59.332;18.034;2023-09-07T09:45:27;102572.91;;;18.56;61.45
51715;BME280;39115;59.332;18.034;2023-09-07T09:47:50;102567.38;;;18.57;61.38
51715;BME280;39115;59.332;18.034;2023-09-07T09:50:12;102569.78;;;18.60;61.44
51715;BME280;39115;59.332;18.034;2023-09-07T09:52:34;102566.78;;;18.63;61.24
51715;BME280;39115;59.332;18.034;2023-09-07T09:54:57;102572.91;;;18.65;61.34
51715;BME280;39115;59.332;18.034;2023-09-07T09:57:17;102571.63;;;18.70;61.33
51715;BME280;39115;59.332;18.034;2023-09-07T09:59:39;102564.09;;;18.73;61.21
51715;BME280;39115;59.332;18.034;2023-09-07T10:02:01;102564.66;;;18.77;61.24
51715;BME280;39115;59.332;18.034;2023-09-07T10:04:23;102558.97;;;18.80;61.25
51715;BME280;39115;59.332;18.034;2023-09-07T10:07:00;102555.00;;;18.84;61.19
51715;BME280;39115;59.332;18.034;2023-09-07T10:09:29;102561.78;;;18.88;61.19
51715;BME280;39115;59.332;18.034;2023-09-07T10:11:53;102558.81;;;18.91;61.16
51715;BME280;39115;59.332;18.034;2023-09-07T10:14:14;102564.78;;;18.95;61.20
51715;BME280;39115;59.332;18.034;2023-09-07T10:17:01;102560.78;;;18.99;61.16
51715;BME280;39115;59.332;18.034;2023-09-07T10:19:25;102556.94;;;19.02;60.99
51715;BME280;39115;59.332;18.034;2023-09-07T10:21:47;102553.13;;;19.04;61.23
51715;BME280;39115;59.332;18.034;2023-09-07T10:24:07;102549.13;;;19.08;61.21
51715;BME280;39115;59.332;18.034;2023-09-07T10:26:28;102548.69;;;19.13;61.04
51715;BME280;39115;59.332;18.034;2023-09-07T10:28:59;102550.22;;;19.16;61.22
51715;BME280;39115;59.332;18.034;2023-09-07T10:31:24;102554.19;;;19.21;61.14
51715;BME280;39115;59.332;18.034;2023-09-07T10:33:46;102547.63;;;19.24;61.12
51715;BME280;39115;59.332;18.034;2023-09-07T10:36:07;102535.56;;;19.28;61.07
51715;BME280;39115;59.332;18.034;2023-09-07T10:38:28;102543.34;;;19.31;61.18
51715;BME280;39115;59.332;18.034;2023-09-07T10:40:55;102536.66;;;19.35;61.04
51715;BME280;39115;59.332;18.034;2023-09-07T10:43:17;102535.34;;;19.39;61.03
51715;BME280;39115;59.332;18.034;2023-09-07T10:45:38;102537.59;;;19.44;61.10
51715;BME280;39115;59.332;18.034;2023-09-07T10:47:59;102538.16;;;19.48;60.94
51715;BME280;39115;59.332;18.034;2023-09-07T10:50:19;102544.09;;;19.51;61.08
51715;BME280;39115;59.332;18.034;2023-09-07T10:52:41;102534.72;;;19.55;60.91
51715;BME280;39115;59.332;18.034;2023-09-07T10:55:01;102529.84;;;19.59;61.23
51715;BME280;39115;59.332;18.034;2023-09-07T10:57:22;102542.03;;;19.63;61.13
51715;BME280;39115;59.332;18.034;2023-09-07T10:59:46;102528.09;;;19.68;60.95
51715;BME280;39115;59.332;18.034;2023-09-07T11:02:07;102523.06;;;19.73;61.04
51715;BME280;39115;59.332;18.034;2023-09-07T11:04:30;102520.06;;;19.76;60.99
51715;BME280;39115;59.332;18.034;2023-09-07T11:06:51;102519.63;;;19.81;61.08
51715;BME280;39115;59.332;18.034;2023-09-07T11:09:12;102522.00;;;19.84;61.21
51715;BME280;39115;59.332;18.034;2023-09-07T11:11:32;102519.88;;;19.87;61.09
51715;BME280;39115;59.332;18.034;2023-09-07T11:13:59;102515.69;;;19.93;61.04
51715;BME280;39115;59.332;18.034;2023-09-07T11:16:20;102515.25;;;19.98;61.21
51715;BME280;39115;59.332;18.034;2023-09-07T11:18:40;102511.25;;;20.02;61.00
51715;BME280;39115;59.332;18.034;2023-09-07T11:21:01;102516.03;;;20.08;61.11
51715;BME280;39115;59.332;18.034;2023-09-07T11:23:24;102509.28;;;20.12;61.14
51715;BME280;39115;59.332;18.034;2023-09-07T11:25:47;102497.00;;;20.18;61.09
51715;BME280;39115;59.332;18.034;2023-09-07T11:28:08;102500.09;;;20.23;60.86
51715;BME280;39115;59.332;18.034;2023-09-07T11:30:30;102496.09;;;20.27;61.27
51715;BME280;39115;59.332;18.034;2023-09-07T11:32:50;102492.91;;;20.32;61.08
51715;BME280;39115;59.332;18.034;2023-09-07T11:35:10;102495.97;;;20.37;61.22
51715;BME280;39115;59.332;18.034;2023-09-07T11:37:31;102500.06;;;20.41;60.99
51715;BME280;39115;59.332;18.034;2023-09-07T11:39:53;102499.59;;;20.46;61.10
51715;BME280;39115;59.332;18.034;2023-09-07T11:42:13;102487.47;;;20.50;61.22
51715;BME280;39115;59.332;18.034;2023-09-07T11:44:34;102495.94;;;20.55;61.21
51715;BME280;39115;59.332;18.034;2023-09-07T11:46:54;102491.06;;;20.59;61.04
51715;BME280;39115;59.332;18.034;2023-09-07T11:49:15;102490.56;;;20.63;61.13
51715;BME280;39115;59.332;18.034;2023-09-07T11:51:40;102478.28;;;20.69;60.97
51715;BME280;39115;59.332;18.034;2023-09-07T11:54:04;102475.13;;;20.74;60.99
51715;BME280;39115;59.332;18.034;2023-09-07T11:56:25;102476.34;;;20.79;60.91
51715;BME280;39115;59.332;18.034;2023-09-07T11:58:45;102471.47;;;20.83;60.85
51715;BME280;39115;59.332;18.034;2023-09-07T12:01:06;102466.56;;;20.87;60.84
51715;BME280;39115;59.332;18.034;2023-09-07T12:03:26;102463.38;;;20.91;60.85
51715;BME280;39115;59.332;18.034;2023-09-07T12:05:50;102466.63;;;20.95;60.86
51715;BME280;39115;59.332;18.034;2023-09-07T12:08:10;102465.25;;;20.99;60.83
51715;BME280;39115;59.332;18.034;2023-09-07T12:10:30;102465.63;;;21.04;60.81